Latest Coastal Weather Observations for Bougainville Reef

IDQ60701

Issued at 1:25 pm EST Thursday 24 April 2014 (issued every 10 minutes, with the page automatically refreshed every 10 minutes)

About coastal observations | Map of coastal stations | Coastal observations for QLD | Marine services | Other Formats
Station Details ID: 200840 Name: BOUGAINVILLE REEF Lat: -15.49 Lon: 147.12 Height: 0.0 m
Data from the previous 72 hours. | See also: Recent months for locations in Queensland
Date/Time
EST
Temp

°C
Wind Pressure Rain
since 9am
mm
Weather Cloud Vis
km
Sea
Height
m
Swell
Dir
 
Speed
knots
Gust
knots
hPa Trend Height
m
Period
s
Dir
24/01:00pm 27.1 ESE 14 18 1009.0 - - - - - - - - -
24/12:30pm 27.2 SE 14 16 1009.3 - - - - - - - - -
24/12:00pm 27.2 SE 16 19 1010.0 - - - - - - - - -
24/11:30am 27.2 SE 15 18 1010.5 - - - - - - - - -
24/11:00am 27.3 SE 15 18 1010.8 - - - - - - - - -
24/10:30am 27.2 SE 15 19 1011.1 - - - - - - - - -
24/10:00am 27.2 E 15 19 1011.2 - - - - - - - - -
24/09:30am 27.1 SE 16 19 1011.4 - - - - - - - - -
24/09:00am 27.3 SE 15 17 1011.0 - - - - - - - - -
24/08:30am 27.2 SE 15 18 1011.0 - - - - - - - - -
24/08:00am 26.9 SSE 14 17 1010.4 - - - - - - - - -
24/07:30am 27.0 SE 15 17 1010.4 - - - - - - - - -
24/07:00am 26.9 ESE 13 16 1010.2 - - - - - - - - -
24/06:30am 26.8 ESE 12 17 1010.0 - - - - - - - - -
24/06:00am 26.9 ESE 12 16 1009.4 - - - - - - - - -
24/05:30am 26.7 ESE 12 17 1009.1 - - - - - - - - -
24/05:00am 26.7 ESE 11 17 1008.9 - - - - - - - - -
24/04:30am 26.7 ESE 11 16 1008.8 - - - - - - - - -
24/04:00am 26.7 E 9 16 1008.8 - - - - - - - - -
24/03:30am 26.7 E 8 15 1008.8 - - - - - - - - -
24/03:00am 26.8 ESE 12 14 1009.2 - - - - - - - - -
24/02:30am 26.8 ESE 12 15 1009.2 - - - - - - - - -
24/02:00am 26.7 ESE 9 13 1009.6 - - - - - - - - -
24/01:30am 26.8 ESE 9 12 1010.0 - - - - - - - - -
24/01:00am 26.9 ESE 7 12 1010.6 - - - - - - - - -
24/12:30am 26.9 ESE 11 13 1011.0 - - - - - - - - -
24/12:00am 27.0 ESE 13 14 1011.3 - - - - - - - - -
 
Date/Time
EST
Temp

°C
Wind Pressure Rain
since 9am
mm
Weather Cloud Vis
km
Sea
Height
m
Swell
Dir
 
Speed
knots
Gust
knots
hPa Trend Height
m
Period
s
Dir
23/11:30pm 26.9 ESE 10 12 1011.5 - - - - - - - - -
23/11:00pm 27.0 ESE 12 13 1011.7 - - - - - - - - -
23/10:30pm 27.2 ESE 11 13 1011.9 - - - - - - - - -
23/10:00pm 27.3 ESE 14 14 1012.1 - - - - - - - - -
23/09:30pm 27.4 E 14 15 1012.1 - - - - - - - - -
23/09:00pm 27.3 ESE 14 17 1011.6 - - - - - - - - -
23/08:30pm 27.3 ESE 11 13 1011.3 - - - - - - - - -
23/08:00pm 27.1 ESE 11 13 1010.7 - - - - - - - - -
23/07:30pm 27.1 ESE 8 11 1010.6 - - - - - - - - -
23/07:00pm 27.0 ESE 12 15 1009.8 - - - - - - - - -
23/06:30pm 27.0 ESE 12 14 1009.8 - - - - - - - - -
23/06:00pm 27.0 ESE 9 14 1009.7 - - - - - - - - -
23/05:30pm 27.2 ESE 12 15 1009.7 - - - - - - - - -
23/05:00pm 27.1 ESE 12 13 1009.5 - - - - - - - - -
23/04:30pm 27.1 SSE 12 14 1009.3 - - - - - - - - -
23/04:00pm 26.9 ESE 11 13 1009.3 - - - - - - - - -
23/03:30pm 27.2 SSE 10 12 1009.3 - - - - - - - - -
23/03:00pm 26.9 SSE 11 13 1009.2 - - - - - - - - -
23/02:30pm 26.7 SSE 10 15 1009.3 - - - - - - - - -
23/02:00pm 26.6 SSE 13 15 1009.3 - - - - - - - - -
23/01:30pm 26.7 SSE 14 17 1009.7 - - - - - - - - -
23/01:00pm 26.8 SE 15 19 1010.2 - - - - - - - - -
23/12:30pm 26.8 SSE 16 20 1010.5 - - - - - - - - -
23/12:00pm 26.3 SE 15 17 1010.9 - - - - - - - - -
23/11:30am 26.4 ESE 17 21 1011.4 - - - - - - - - -
23/11:00am 27.2 SE 13 16 1011.7 - - - - - - - - -
23/10:30am 27.5 ESE 14 17 1011.9 - - - - - - - - -
23/10:00am 27.3 ESE 15 20 1012.1 - - - - - - - - -
23/09:30am 27.3 ESE 15 18 1012.3 - - - - - - - - -
23/09:00am 27.2 ESE 16 21 1012.0 - - - - - - - - -
23/08:30am 27.3 ESE 16 19 1012.0 - - - - - - - - -
23/08:00am 27.3 ESE 17 20 1011.3 - - - - - - - - -
23/07:30am 27.1 ESE 17 20 1011.2 - - - - - - - - -
23/07:00am 26.9 ESE 18 24 1010.8 - - - - - - - - -
23/06:30am 27.0 ESE 20 23 1010.7 - - - - - - - - -
23/06:00am 27.1 ESE 17 21 1010.2 - - - - - - - - -
23/05:30am 26.9 ESE 15 20 1010.3 - - - - - - - - -
23/05:00am 27.0 ESE 17 22 1010.2 - - - - - - - - -
23/04:30am 27.0 ESE 17 21 1010.3 - - - - - - - - -
23/04:00am 26.9 ESE 15 19 1010.5 - - - - - - - - -
23/03:30am 26.9 ESE 15 18 1010.8 - - - - - - - - -
23/03:00am 26.9 ESE 15 20 1010.9 - - - - - - - - -
23/02:30am 26.8 ESE 14 18 1011.1 - - - - - - - - -
23/02:00am 26.8 ESE 15 19 1011.1 - - - - - - - - -
23/01:30am 26.9 ESE 18 21 1011.5 - - - - - - - - -
23/01:00am 26.9 ESE 16 20 1011.9 - - - - - - - - -
23/12:30am 26.9 ESE 16 19 1012.3 - - - - - - - - -
23/12:00am 26.7 ESE 19 22 1012.5 - - - - - - - - -
 
Date/Time
EST
Temp

°C
Wind Pressure Rain
since 9am
mm
Weather Cloud Vis
km
Sea
Height
m
Swell
Dir
 
Speed
knots
Gust
knots
hPa Trend Height
m
Period
s
Dir
22/11:30pm 26.9 ESE 16 19 1012.6 - - - - - - - - -
22/11:00pm 26.9 ESE 16 19 1012.7 - - - - - - - - -
22/10:30pm 27.1 ESE 16 20 1013.0 - - - - - - - - -
22/10:00pm 27.0 ESE 16 20 1013.2 - - - - - - - - -
22/09:30pm 27.0 ESE 18 21 1013.3 - - - - - - - - -
22/09:00pm 27.1 ESE 17 21 1013.5 - - - - - - - - -
22/08:30pm 27.1 ESE 19 23 1013.4 - - - - - - - - -
22/08:00pm 27.0 ESE 18 23 1013.1 - - - - - - - - -
22/07:30pm 27.3 ESE 17 20 1012.9 - - - - - - - - -
22/07:00pm 27.2 ESE 19 21 1012.2 - - - - - - - - -
22/06:30pm 27.1 ESE 19 23 1012.2 - - - - - - - - -
22/06:00pm 27.1 ESE 17 21 1011.9 - - - - - - - - -
22/05:30pm 27.0 ESE 16 21 1011.8 - - - - - - - - -
22/05:00pm 27.2 ESE 17 19 1011.6 - - - - - - - - -
22/04:30pm 27.0 ESE 16 19 1011.6 - - - - - - - - -
22/04:00pm 27.0 SE 16 19 1011.4 - - - - - - - - -
22/03:30pm 27.0 ESE 17 19 1011.5 - - - - - - - - -
22/03:00pm 26.6 SE 16 19 1011.5 - - - - - - - - -
22/02:30pm 26.9 SSE 16 19 1011.8 - - - - - - - - -
22/02:00pm 27.1 SE 16 21 1012.1 - - - - - - - - -
22/01:30pm 27.0 SE 16 20 1012.4 - - - - - - - - -
22/01:00pm 27.1 ESE 18 22 1012.7 - - - - - - - - -
22/12:30pm 27.2 ESE 17 21 1012.9 - - - - - - - - -
22/12:00pm 27.0 ESE 18 20 1013.3 - - - - - - - - -
22/11:30am 27.2 ESE 18 22 1013.9 - - - - - - - - -
22/11:00am 27.2 ESE 20 22 1014.4 - - - - - - - - -
22/10:30am 26.9 ESE 21 23 1014.6 - - - - - - - - -
22/10:00am 27.1 ESE 21 25 1014.7 - - - - - - - - -
22/09:30am 27.0 ESE 23 26 1014.6 - - - - - - - - -
22/09:00am 27.1 ESE 23 25 1014.2 - - - - - - - - -
22/08:30am 27.0 ESE 21 24 1014.1 - - - - - - - - -
22/08:00am 26.9 ESE 22 25 1013.7 - - - - - - - - -
22/07:30am 27.0 ESE 24 27 1013.4 - - - - - - - - -
22/07:00am 26.9 ESE 23 28 1012.9 - - - - - - - - -
22/06:30am 27.0 ESE 24 27 1013.1 - - - - - - - - -
22/06:00am 27.0 E 23 26 1012.9 - - - - - - - - -
22/05:30am 27.2 E 23 26 1012.7 - - - - - - - - -
22/05:00am 27.0 ESE 23 27 1012.7 - - - - - - - - -
22/04:30am 27.2 ESE 23 27 1012.7 - - - - - - - - -
22/04:00am 27.0 ESE 26 28 1012.4 - - - - - - - - -
22/03:30am 26.9 ESE 26 29 1012.5 - - - - - - - - -
22/03:00am 27.0 ESE 26 26 1012.5 - - - - - - - - -
22/02:30am 27.0 ESE 25 29 1012.5 - - - - - - - - -
22/02:00am 26.9 ESE 24 28 1012.7 - - - - - - - - -
22/01:30am 27.1 ESE 25 29 1012.9 - - - - - - - - -
22/01:00am 27.1 ESE 27 31 1013.0 - - - - - - - - -
22/12:30am 27.2 ESE 27 31 1013.2 - - - - - - - - -
22/12:00am 27.1 ESE 26 30 1013.6 - - - - - - - - -
 
Date/Time
EST
Temp

°C
Wind Pressure Rain
since 9am
mm
Weather Cloud Vis
km
Sea
Height
m
Swell
Dir
 
Speed
knots
Gust
knots
hPa Trend Height
m
Period
s
Dir
21/11:30pm 27.2 ESE 29 33 1013.7 - - - - - - - - -
21/11:00pm 27.3 ESE 27 30 1013.8 - - - - - - - - -
21/10:30pm 27.4 ESE 25 29 1014.1 - - - - - - - - -
21/10:00pm 27.2 ESE 26 32 1014.0 - - - - - - - - -
21/09:30pm 27.5 ESE 25 29 1014.1 - - - - - - - - -
21/09:00pm 27.3 ESE 27 32 1013.9 - - - - - - - - -
21/08:30pm 27.6 ESE 27 31 1013.8 - - - - - - - - -
21/08:00pm 27.3 ESE 26 30 1013.4 - - - - - - - - -
21/07:30pm 27.4 ESE 26 30 1013.3 - - - - - - - - -
21/07:00pm 27.5 ESE 28 31 1012.6 - - - - - - - - -
21/06:00pm 26.8 ESE 24 31 1012.7 - - - - - - - - -
21/05:30pm 26.8 ESE 23 29 1012.7 - - - - - - - - -
21/05:00pm 27.2 ESE 25 29 1012.2 - - - - - - - - -
21/04:30pm 27.4 ESE 26 30 1011.9 - - - - - - - - -
21/04:00pm 27.4 ESE 25 27 1011.4 - - - - - - - - -
21/03:30pm 27.4 ESE 26 30 1011.1 - - - - - - - - -
21/03:00pm 27.4 ESE 26 29 1010.8 - - - - - - - - -
21/02:30pm 27.0 ESE 25 29 1010.9 - - - - - - - - -
21/02:00pm 26.5 ESE 23 28 1011.2 - - - - - - - - -
21/01:30pm 26.1 ESE 23 26 1011.7 - - - - - - - - -

Other Formats:

Comma delimited format used in spreadsheet applications
http://www.bom.gov.au/fwo/IDQ60701/IDQ60701.95288.axf

JavaScript Object Notation format (JSON) in row-major order
http://www.bom.gov.au/fwo/IDQ60701/IDQ60701.95288.json